Terminal Aerodrome Forecast
Issued by NWS

Home | Current Version | Previous Version | Text Only | Print | Product List | Glossary On
Versions: 1 2 3 4 5 6 7 8 9 10 11 12 13 14
534
FTUS46 KMTR 262339
TAFSJC
TAF
KSJC 262339Z 2700/2724 30014KT P6SM FEW008 BKN030 OVC035
      TEMPO 2704/2708 5SM BR BKN008 OVC011
     FM270800 30011KT 6SM BR SCT008 OVC011
     FM271800 31016KT P6SM FEW012 BKN015 OVC250=

USA.gov is the U.S. government's official web portal to all federal, state and local government web resources and services.